Time;durP1;ratioP1;P1;durP2;ratioP2;P2;SDS_P1;SDS_P2;PMS_P1;PMS_P2;Temp;Humidity;BMP_temperature;BMP_pressure;BME280_temperature;BME280_humidity;BME280_pressure;Samples;Min_cycle;Max_cycle;Signal;HPM_P1;HPM_P2
2021/12/24 00:01:07;;;;;;;5.25;3.00;;;25.70;99.90;;;;;;5127258;27;20377;-91
2021/12/24 00:03:35;;;;;;;5.90;3.42;;;26.00;99.70;;;;;;5129150;27;20381;-92
2021/12/24 00:06:06;;;;;;;5.97;3.80;;;26.00;99.90;;;;;;5129879;27;20437;-92
2021/12/24 00:08:34;;;;;;;6.03;3.35;;;26.20;99.90;;;;;;5104181;27;20389;-86
2021/12/24 00:11:02;;;;;;;4.70;3.80;;;26.30;99.90;;;;;;5129321;28;20369;-89
2021/12/24 00:13:34;;;;;;;5.63;3.97;;;26.50;99.70;;;;;;5129097;28;20415;-89
2021/12/24 00:16:11;;;;;;;6.65;3.70;;;26.70;98.60;;;;;;5127740;27;20369;-82
2021/12/24 00:37:42;;;;;;;5.13;4.28;;;26.00;99.30;;;;;;5131444;27;20388;-83
2021/12/24 00:40:18;;;;;;;5.20;4.45;;;25.90;99.60;;;;;;5124118;27;20397;-81
2021/12/24 00:42:51;;;;;;;6.22;4.57;;;25.70;99.90;;;;;;5118148;27;20385;-81
2021/12/24 00:45:22;;;;;;;6.13;5.20;;;26.00;99.20;;;;;;5115516;27;20542;-84
2021/12/24 00:47:50;;;;;;;6.68;5.00;;;26.00;99.60;;;;;;5111380;28;20375;-84
2021/12/24 00:50:22;;;;;;;5.65;4.95;;;25.90;99.60;;;;;;5110012;28;20892;-87
2021/12/24 00:52:57;;;;;;;8.97;5.53;;;25.80;99.70;;;;;;5111038;28;20372;-83
2021/12/24 00:55:27;;;;;;;6.70;5.32;;;25.90;99.00;;;;;;5109913;27;20389;-90
2021/12/24 00:57:59;;;;;;;8.38;6.15;;;26.10;99.80;;;;;;5110244;28;20459;-85
2021/12/24 01:00:34;;;;;;;7.22;6.10;;;26.30;98.90;;;;;;5110167;28;20407;-87
2021/12/24 01:03:03;;;;;;;7.45;6.57;;;26.30;97.90;;;;;;5110500;28;20450;-79
2021/12/24 01:05:32;;;;;;;6.90;6.22;;;26.30;98.10;;;;;;5109180;28;20432;-79
2021/12/24 01:07:59;;;;;;;7.90;6.35;;;26.40;97.50;;;;;;5111826;28;20436;-81
2021/12/24 01:10:30;;;;;;;8.05;6.00;;;26.50;97.70;;;;;;5110420;28;20451;-84
2021/12/24 01:12:58;;;;;;;6.25;5.40;;;26.70;97.30;;;;;;5092784;28;20382;-80
2021/12/24 01:15:25;;;;;;;6.78;5.88;;;27.30;97.10;;;;;;5109985;28;20473;-87
2021/12/24 01:18:15;;;;;;;6.45;5.85;;;27.60;94.70;;;;;;5111165;28;20410;-84
2021/12/24 01:20:51;;;;;;;6.22;5.60;;;28.00;94.40;;;;;;5109452;28;20362;-82
2021/12/24 01:26:00;;;;;;;6.13;5.53;;;29.20;91.10;;;;;;5109649;28;20367;-81
2021/12/24 01:28:40;;;;;;;6.50;5.90;;;29.70;87.70;;;;;;5109445;28;20381;-86
2021/12/24 01:44:59;;;;;;;5.85;4.60;;;30.90;77.90;;;;;;5130117;27;20383;-88
2021/12/24 01:47:26;;;;;;;6.87;4.40;;;30.90;77.60;;;;;;5122289;27;20384;-87
2021/12/24 01:49:53;;;;;;;5.78;4.30;;;31.00;73.50;;;;;;5123570;27;20958;-86
2021/12/24 01:52:20;;;;;;;5.03;4.40;;;31.70;73.40;;;;;;5129856;27;20399;-85
2021/12/24 01:54:48;;;;;;;5.25;4.47;;;32.00;72.80;;;;;;5129424;27;20481;-85
2021/12/24 01:57:15;;;;;;;4.95;4.45;;;32.20;73.00;;;;;;5129323;27;20400;-88
2021/12/24 01:59:43;;;;;;;5.32;4.15;;;31.90;71.60;;;;;;5129792;27;20372;-86
2021/12/24 02:02:11;;;;;;;4.35;3.90;;;31.60;72.20;;;;;;5128607;27;20454;-88
2021/12/24 02:04:38;;;;;;;6.05;3.80;;;31.20;70.20;;;;;;5129446;27;20466;-84
2021/12/24 02:07:05;;;;;;;6.53;3.83;;;31.00;69.70;;;;;;5128734;27;20861;-88
2021/12/24 02:09:34;;;;;;;6.15;4.00;;;31.20;71.60;;;;;;5125785;27;20403;-87
2021/12/24 02:12:01;;;;;;;4.35;3.70;;;31.00;70.40;;;;;;5130245;27;20388;-86
2021/12/24 02:14:35;;;;;;;4.95;2.50;;;30.80;73.20;;;;;;5129913;27;20516;-84
2021/12/24 02:30:54;;;;;;;4.70;2.38;;;30.70;77.90;;;;;;5128885;27;20709;-80
2021/12/24 02:33:21;;;;;;;4.82;2.30;;;31.70;77.20;;;;;;5129555;27;20744;-80
2021/12/24 02:35:48;;;;;;;6.15;2.20;;;32.40;74.30;;;;;;5131279;27;20418;-85
2021/12/24 02:38:15;;;;;;;6.07;2.60;;;33.50;69.90;;;;;;5130518;27;20389;-88
2021/12/24 02:40:43;;;;;;;4.57;2.00;;;34.10;64.90;;;;;;5129100;27;20377;-88
2021/12/24 02:43:14;;;;;;;4.47;2.35;;;34.70;62.30;;;;;;5128968;27;20377;-86
2021/12/24 02:45:43;;;;;;;5.07;2.40;;;34.90;62.20;;;;;;5127963;27;20408;-85
2021/12/24 02:48:47;;;;;;;6.65;2.53;;;35.00;60.60;;;;;;5128336;27;20389;-87
2021/12/24 02:53:58;;;;;;;4.90;2.13;;;35.80;57.00;;;;;;5121216;27;20372;-88
2021/12/24 02:56:37;;;;;;;5.13;2.13;;;36.00;57.30;;;;;;5127235;27;20392;-88
2021/12/24 02:59:10;;;;;;;4.55;2.00;;;35.70;57.80;;;;;;5128655;27;20377;-81
2021/12/24 03:01:39;;;;;;;5.88;2.33;;;35.70;59.90;;;;;;5126922;27;20728;-86
2021/12/24 03:04:07;;;;;;;3.83;2.30;;;36.10;57.10;;;;;;5127305;27;20389;-85
2021/12/24 03:06:40;;;;;;;3.75;2.47;;;36.60;55.40;;;;;;5127375;27;20377;-83
2021/12/24 03:09:12;;;;;;;3.88;2.70;;;36.70;53.80;;;;;;5127084;27;20373;-81
2021/12/24 03:11:40;;;;;;;5.47;2.20;;;36.70;54.00;;;;;;5127374;27;20376;-85
2021/12/24 03:14:08;;;;;;;4.85;2.40;;;36.60;54.10;;;;;;5127298;27;20910;-81
2021/12/24 03:16:37;;;;;;;4.43;2.40;;;36.50;53.30;;;;;;5127490;27;20955;-84
2021/12/24 03:19:07;;;;;;;5.15;2.25;;;36.80;54.80;;;;;;5127774;27;20441;-87
2021/12/24 03:21:45;;;;;;;4.23;2.20;;;36.10;54.30;;;;;;5128026;27;20383;-82
2021/12/24 03:26:45;;;;;;;4.57;2.30;;;36.00;56.50;;;;;;5128371;27;20368;-85
2021/12/24 03:29:14;;;;;;;7.00;2.40;;;35.60;54.90;;;;;;5122089;27;20879;-83
2021/12/24 03:31:41;;;;;;;3.33;2.40;;;34.60;56.30;;;;;;5127160;27;20403;-84
2021/12/24 03:34:18;;;;;;;3.85;2.33;;;33.90;56.80;;;;;;5126874;27;20446;-89
2021/12/24 03:36:46;;;;;;;5.18;2.50;;;33.30;59.50;;;;;;5126715;27;20389;-85
2021/12/24 03:39:13;;;;;;;4.82;2.28;;;33.00;60.10;;;;;;5127022;27;20397;-86
2021/12/24 03:41:40;;;;;;;2.67;2.20;;;33.40;61.90;;;;;;5127427;27;20373;-85
2021/12/24 03:44:10;;;;;;;3.97;2.17;;;34.70;58.90;;;;;;5127339;27;20377;-84
2021/12/24 03:46:56;;;;;;;4.47;2.30;;;36.00;55.90;;;;;;5128679;27;20508;-87
2021/12/24 03:49:37;;;;;;;4.40;2.22;;;35.80;55.20;;;;;;5127866;27;20380;-86
2021/12/24 03:54:56;;;;;;;3.95;2.40;;;35.10;56.80;;;;;;5127754;27;20410;-86
2021/12/24 03:57:31;;;;;;;4.13;2.20;;;35.40;55.50;;;;;;5127708;28;20453;-88
2021/12/24 04:00:01;;;;;;;4.33;2.10;;;36.60;52.50;;;;;;5128023;28;20414;-84
2021/12/24 04:02:28;;;;;;;4.53;2.17;;;36.60;51.60;;;;;;5128430;27;20373;-84
2021/12/24 04:04:55;;;;;;;3.42;2.33;;;36.00;52.60;;;;;;5127327;28;20381;-83
2021/12/24 04:07:22;;;;;;;2.67;2.30;;;34.80;53.70;;;;;;5128700;27;20357;-87
2021/12/24 04:10:00;;;;;;;4.20;2.10;;;33.90;55.80;;;;;;5131730;27;20475;-85
2021/12/24 04:12:27;;;;;;;3.45;2.30;;;34.10;59.00;;;;;;5131736;27;20368;-87
2021/12/24 04:14:54;;;;;;;4.50;2.57;;;34.70;57.00;;;;;;5131871;27;20376;-85
2021/12/24 04:17:22;;;;;;;3.55;2.40;;;34.00;57.90;;;;;;5131397;27;20903;-86
2021/12/24 04:25:20;;;;;;;4.53;2.17;;;35.10;58.10;;;;;;5131967;27;20476;-86
2021/12/24 04:27:49;;;;;;;3.60;2.10;;;35.50;54.70;;;;;;5131153;27;20381;-85
2021/12/24 04:30:22;;;;;;;3.90;2.30;;;35.40;55.50;;;;;;5113554;27;20381;-92
2021/12/24 04:35:31;;;;;;;3.17;2.27;;;36.70;54.10;;;;;;5133291;27;20381;-88
2021/12/24 04:51:51;;;;;;;3.88;2.20;;;32.70;59.90;;;;;;5131060;27;20384;-87
2021/12/24 05:05:10;;;;;;;4.60;2.20;;;32.10;63.10;;;;;;5130947;27;20936;-84
2021/12/24 05:08:08;;;;;;;5.30;2.37;;;32.50;63.00;;;;;;5129719;27;20503;-90
2021/12/24 05:10:37;;;;;;;4.88;2.20;;;32.40;62.60;;;;;;5130316;27;20379;-82
2021/12/24 05:13:07;;;;;;;4.47;2.20;;;32.00;63.60;;;;;;5131679;27;20361;-86
2021/12/24 05:15:37;;;;;;;5.80;2.30;;;32.00;64.20;;;;;;5129959;27;20399;-84
2021/12/24 05:18:29;;;;;;;4.13;2.20;;;32.30;64.60;;;;;;5130027;27;20405;-88
2021/12/24 05:23:43;;;;;;;4.10;2.15;;;32.30;64.50;;;;;;5132099;27;20404;-86
2021/12/24 05:26:10;;;;;;;4.03;2.38;;;33.30;62.30;;;;;;5094425;27;20380;-82
2021/12/24 05:28:38;;;;;;;5.85;2.17;;;33.50;60.60;;;;;;5125895;27;20397;-86
2021/12/24 05:31:05;;;;;;;4.78;2.22;;;33.00;61.60;;;;;;5129596;27;20369;-89
2021/12/24 05:33:32;;;;;;;6.85;2.70;;;32.50;62.80;;;;;;5110933;27;20876;-88
2021/12/24 05:35:59;;;;;;;7.72;2.40;;;32.70;63.30;;;;;;5128507;27;20744;-86
2021/12/24 05:38:27;;;;;;;6.03;2.40;;;33.30;62.20;;;;;;5105169;27;20825;-87
2021/12/24 05:40:54;;;;;;;5.95;2.40;;;34.10;62.10;;;;;;5115653;27;20406;-85
2021/12/24 05:43:21;;;;;;;6.00;2.30;;;34.80;59.40;;;;;;5110528;27;20384;-87
2021/12/24 05:45:48;;;;;;;6.93;2.30;;;35.60;57.80;;;;;;5130791;27;20401;-86
2021/12/24 05:48:16;;;;;;;5.32;2.60;;;36.00;57.00;;;;;;5134253;27;20417;-90
2021/12/24 05:50:43;;;;;;;6.07;2.35;;;36.10;56.50;;;;;;5123293;27;20435;-84
2021/12/24 05:53:10;;;;;;;4.78;2.13;;;36.30;56.20;;;;;;5127070;27;20416;-88
2021/12/24 05:55:37;;;;;;;6.07;2.35;;;36.20;56.30;;;;;;5131730;27;20384;-88
2021/12/24 05:58:07;;;;;;;5.13;2.20;;;35.60;57.20;;;;;;5132569;27;20393;-87
2021/12/24 06:00:38;;;;;;;6.90;2.22;;;35.50;56.90;;;;;;5142111;27;20451;-88
2021/12/24 06:03:06;;;;;;;5.13;2.17;;;35.50;57.40;;;;;;5147530;27;20377;-87
2021/12/24 06:05:35;;;;;;;4.45;2.15;;;35.30;57.80;;;;;;5133961;27;20385;-88
2021/12/24 06:08:03;;;;;;;5.68;2.13;;;35.20;57.20;;;;;;5132527;27;20377;-86
2021/12/24 06:10:30;;;;;;;5.45;2.08;;;35.40;56.50;;;;;;5129662;27;20464;-86
2021/12/24 06:12:57;;;;;;;7.15;2.17;;;35.40;56.30;;;;;;5129615;27;20380;-88
2021/12/24 06:15:26;;;;;;;5.40;2.30;;;35.20;56.50;;;;;;5129793;27;20369;-87
2021/12/24 06:17:57;;;;;;;5.00;2.15;;;34.80;57.40;;;;;;5130159;27;20409;-85
2021/12/24 06:20:26;;;;;;;6.27;2.40;;;34.40;59.30;;;;;;5129791;27;20376;-88
2021/12/24 06:22:53;;;;;;;5.40;2.30;;;33.80;60.30;;;;;;5110414;27;20779;-87
2021/12/24 06:25:21;;;;;;;5.97;2.40;;;33.30;61.60;;;;;;5129330;27;20380;-88
2021/12/24 06:27:48;;;;;;;6.22;2.20;;;33.10;63.50;;;;;;5129516;27;20389;-88
2021/12/24 06:30:15;;;;;;;6.22;2.42;;;32.70;62.60;;;;;;5128640;27;20413;-84
2021/12/24 06:32:42;;;;;;;6.93;2.33;;;32.40;63.40;;;;;;5128782;27;20368;-85
2021/12/24 06:35:10;;;;;;;5.78;2.53;;;32.20;64.90;;;;;;5128098;27;20472;-87
2021/12/24 06:37:38;;;;;;;7.97;2.38;;;32.10;65.00;;;;;;5130058;27;20396;-89
2021/12/24 06:40:07;;;;;;;7.95;2.63;;;32.20;64.90;;;;;;5130194;27;20984;-85
2021/12/24 06:42:34;;;;;;;9.35;2.40;;;32.60;64.80;;;;;;5131235;27;20861;-85
2021/12/24 06:45:01;;;;;;;7.72;2.45;;;32.60;64.80;;;;;;5127451;27;20373;-84
2021/12/24 06:47:29;;;;;;;5.82;2.28;;;32.50;65.20;;;;;;5130129;27;21010;-87
2021/12/24 06:49:56;;;;;;;6.25;2.40;;;32.40;65.60;;;;;;5127959;27;20464;-86
2021/12/24 06:52:23;;;;;;;7.25;2.60;;;32.60;65.10;;;;;;5127964;27;20392;-82
2021/12/24 06:54:50;;;;;;;5.95;2.30;;;33.10;64.00;;;;;;5128035;27;20377;-88
2021/12/24 06:57:19;;;;;;;7.03;2.30;;;33.30;63.10;;;;;;5128824;27;20544;-85
2021/12/24 06:59:48;;;;;;;7.03;2.10;;;33.20;62.50;;;;;;5128294;27;20381;-83
2021/12/24 07:02:15;;;;;;;7.75;2.65;;;33.10;63.60;;;;;;5127703;27;20420;-84
2021/12/24 07:04:42;;;;;;;7.87;2.43;;;32.90;63.60;;;;;;5125385;27;20468;-85
2021/12/24 07:07:09;;;;;;;6.17;2.37;;;32.60;65.20;;;;;;5128195;27;20381;-85
2021/12/24 07:09:42;;;;;;;4.82;2.33;;;32.90;65.60;;;;;;5127927;27;20381;-89
2021/12/24 07:12:13;;;;;;;6.63;2.22;;;33.00;63.90;;;;;;5111887;27;20841;-86
2021/12/24 07:14:42;;;;;;;8.15;2.67;;;32.60;64.40;;;;;;5127733;27;20522;-83
2021/12/24 07:17:10;;;;;;;6.25;2.65;;;32.00;66.20;;;;;;5128563;27;20454;-83
2021/12/24 07:19:37;;;;;;;9.63;3.37;;;31.30;67.40;;;;;;5128845;27;20385;-85
2021/12/24 07:22:07;;;;;;;7.40;3.20;;;30.70;70.00;;;;;;5128717;27;20389;-84
2021/12/24 07:24:35;;;;;;;11.63;3.93;;;30.40;72.10;;;;;;5129363;27;20400;-85
2021/12/24 07:27:03;;;;;;;10.43;4.22;;;30.00;74.70;;;;;;5125049;27;20379;-87
2021/12/24 07:29:31;;;;;;;9.95;3.35;;;29.60;75.10;;;;;;5129326;27;20381;-86
2021/12/24 07:31:58;;;;;;;11.43;4.22;;;29.30;77.40;;;;;;5131070;27;20824;-85
2021/12/24 07:34:25;;;;;;;9.88;3.63;;;29.00;79.70;;;;;;5130654;27;20420;-79
2021/12/24 07:36:52;;;;;;;7.97;3.03;;;28.70;81.20;;;;;;5127603;27;20400;-83
2021/12/24 07:39:19;;;;;;;8.50;3.10;;;28.40;82.90;;;;;;5128078;27;20393;-81
2021/12/24 07:41:47;;;;;;;9.38;3.38;;;28.20;84.90;;;;;;5127571;27;20376;-80
2021/12/24 07:44:17;;;;;;;9.65;3.10;;;28.00;88.50;;;;;;5107517;27;20440;-84
2021/12/24 07:46:49;;;;;;;11.05;3.17;;;27.80;90.00;;;;;;5123908;27;20381;-80
2021/12/24 07:54:23;;;;;;;8.73;3.05;;;27.50;93.10;;;;;;5127497;27;20376;-85
2021/12/24 07:56:50;;;;;;;9.65;3.30;;;27.40;93.90;;;;;;5127150;28;20396;-82
2021/12/24 07:59:17;;;;;;;8.07;3.30;;;27.40;94.20;;;;;;5124518;27;20782;-84
2021/12/24 08:01:46;;;;;;;9.73;3.13;;;27.30;94.30;;;;;;5128204;28;20418;-84
2021/12/24 08:04:14;;;;;;;10.45;3.38;;;27.10;95.00;;;;;;5126835;27;20888;-83
2021/12/24 08:06:41;;;;;;;11.95;3.50;;;26.90;95.80;;;;;;5127890;27;20377;-83
2021/12/24 08:09:08;;;;;;;13.53;3.80;;;26.80;96.70;;;;;;5126166;27;20448;-82
2021/12/24 08:11:36;;;;;;;9.83;3.67;;;26.60;97.60;;;;;;5127353;27;20791;-85
2021/12/24 08:14:05;;;;;;;10.32;3.58;;;26.60;98.00;;;;;;5126880;27;20449;-81
2021/12/24 08:16:33;;;;;;;9.95;3.60;;;26.50;98.40;;;;;;5127320;28;20376;-92
2021/12/24 08:19:02;;;;;;;11.00;3.70;;;26.40;99.30;;;;;;5108909;28;20381;-85
2021/12/24 08:21:29;;;;;;;10.05;3.65;;;26.20;99.80;;;;;;5127981;28;20799;-88
2021/12/24 08:23:56;;;;;;;10.75;3.58;;;26.10;99.90;;;;;;5127345;27;20392;-84
2021/12/24 08:26:25;;;;;;;10.90;3.55;;;26.00;99.90;;;;;;5127132;27;20372;-86
2021/12/24 08:28:52;;;;;;;12.40;4.10;;;25.90;99.90;;;;;;5128624;27;21195;-81
2021/12/24 08:31:19;;;;;;;10.35;3.40;;;25.90;99.90;;;;;;5127016;27;20381;-83
2021/12/24 08:33:46;;;;;;;11.50;3.63;;;25.80;99.90;;;;;;5127087;27;20442;-81
2021/12/24 08:36:13;;;;;;;11.27;3.80;;;25.80;99.90;;;;;;5127700;27;20369;-83
2021/12/24 08:38:41;;;;;;;11.45;3.30;;;25.70;99.90;;;;;;5126899;27;20411;-84
2021/12/24 08:41:08;;;;;;;11.15;3.80;;;25.70;99.90;;;;;;5127409;27;20416;-84
2021/12/24 08:43:35;;;;;;;11.82;3.40;;;25.70;99.90;;;;;;5129546;28;20476;-84
2021/12/24 08:46:03;;;;;;;9.70;3.20;;;25.50;99.90;;;;;;5130751;28;20380;-81
2021/12/24 08:48:30;;;;;;;8.15;2.83;;;25.50;99.90;;;;;;5131069;27;20376;-84
2021/12/24 08:50:57;;;;;;;10.90;3.33;;;25.40;99.90;;;;;;5129108;28;20424;-87
2021/12/24 08:53:25;;;;;;;9.52;3.35;;;25.40;99.90;;;;;;5142488;27;20391;-83
2021/12/24 08:55:52;;;;;;;10.70;3.10;;;25.40;99.90;;;;;;5149943;27;20371;-86
2021/12/24 08:58:20;;;;;;;10.48;2.97;;;25.30;99.90;;;;;;5130320;27;20392;-83
2021/12/24 09:00:47;;;;;;;7.82;2.95;;;25.20;99.90;;;;;;5130540;27;20377;-85
2021/12/24 09:03:14;;;;;;;9.57;3.13;;;25.10;99.90;;;;;;5130053;27;20381;-85
2021/12/24 09:05:41;;;;;;;10.00;3.17;;;25.10;99.90;;;;;;5130027;27;20461;-84
2021/12/24 09:08:08;;;;;;;10.53;3.73;;;25.10;99.90;;;;;;5130702;27;20407;-85
2021/12/24 09:10:36;;;;;;;11.48;3.72;;;25.10;99.90;;;;;;5129953;27;20441;-82
2021/12/24 09:13:03;;;;;;;11.25;3.85;;;25.10;99.90;;;;;;5130901;27;20392;-85
2021/12/24 09:15:31;;;;;;;12.80;4.03;;;25.10;99.90;;;;;;5130483;27;20888;-86
2021/12/24 09:17:59;;;;;;;9.75;3.67;;;25.00;99.90;;;;;;5128452;27;20411;-84
2021/12/24 09:20:33;;;;;;;16.43;4.07;;;25.00;99.90;;;;;;5129855;27;20380;-84
2021/12/24 09:23:01;;;;;;;10.90;3.75;;;24.90;99.90;;;;;;5130229;27;20526;-88
2021/12/24 09:25:30;;;;;;;10.57;3.95;;;24.90;99.90;;;;;;5129219;27;20429;-85
2021/12/24 09:27:59;;;;;;;11.43;4.00;;;24.80;99.90;;;;;;5130414;27;20377;-81
2021/12/24 09:30:28;;;;;;;12.35;3.88;;;24.70;99.90;;;;;;5135642;27;20377;-85
2021/12/24 09:32:55;;;;;;;12.73;3.93;;;24.60;99.90;;;;;;5130714;27;20843;-83
2021/12/24 09:35:25;;;;;;;13.07;4.22;;;24.50;99.90;;;;;;5129264;27;20473;-83
2021/12/24 09:37:53;;;;;;;11.50;3.88;;;24.40;99.90;;;;;;5129837;27;20407;-81
2021/12/24 09:40:21;;;;;;;12.05;3.92;;;24.40;99.90;;;;;;5129678;27;20389;-87
2021/12/24 09:42:48;;;;;;;11.60;4.20;;;24.30;99.90;;;;;;5129266;27;20381;-87
2021/12/24 09:45:17;;;;;;;11.00;3.95;;;24.30;99.90;;;;;;5129245;27;20454;-89
2021/12/24 09:47:44;;;;;;;13.05;3.95;;;24.30;99.90;;;;;;5128236;27;20385;-85
2021/12/24 09:50:17;;;;;;;10.77;4.05;;;24.30;99.90;;;;;;5128702;27;20377;-86
2021/12/24 09:52:44;;;;;;;11.68;4.13;;;24.30;99.90;;;;;;5129822;27;20753;-85
2021/12/24 09:55:15;;;;;;;11.43;4.00;;;24.30;99.90;;;;;;5134198;27;20779;-85
2021/12/24 09:57:43;;;;;;;12.05;4.18;;;24.30;99.90;;;;;;5130573;27;20420;-85
2021/12/24 10:00:13;;;;;;;13.38;4.13;;;24.40;99.90;;;;;;5128730;27;20911;-84
2021/12/24 10:02:45;;;;;;;12.48;4.10;;;24.30;99.90;;;;;;5129579;27;20416;-85
2021/12/24 10:05:35;;;;;;;14.77;4.20;;;24.30;99.90;;;;;;5128144;27;20475;-85
2021/12/24 10:08:24;;;;;;;14.05;4.63;;;24.30;99.90;;;;;;5138445;27;20373;-86
2021/12/24 10:11:00;;;;;;;11.60;4.30;;;24.30;99.90;;;;;;5138785;27;20460;-85
2021/12/24 10:13:43;;;;;;;10.40;4.28;;;24.30;99.90;;;;;;5134979;27;20380;-85
2021/12/24 10:16:19;;;;;;;15.75;4.60;;;24.30;99.90;;;;;;5130821;27;20860;-86
2021/12/24 10:18:49;;;;;;;15.60;4.80;;;24.20;99.90;;;;;;5121183;27;20408;-84
2021/12/24 10:21:25;;;;;;;17.48;4.95;;;24.10;99.90;;;;;;5140344;27;20377;-86
2021/12/24 10:23:56;;;;;;;13.77;4.90;;;24.00;99.90;;;;;;5130695;27;20398;-85
2021/12/24 10:26:47;;;;;;;15.35;5.00;;;23.90;99.90;;;;;;5129557;27;20400;-84
2021/12/24 10:29:27;;;;;;;11.00;4.55;;;23.80;99.90;;;;;;5127898;27;20438;-85
2021/12/24 10:31:57;;;;;;;13.52;4.82;;;23.70;99.90;;;;;;5129294;27;20377;-87
2021/12/24 10:34:33;;;;;;;13.88;4.90;;;23.60;99.90;;;;;;5110555;27;20389;-85
2021/12/24 10:37:03;;;;;;;11.75;4.47;;;23.60;99.90;;;;;;5128872;27;20484;-85
2021/12/24 10:39:39;;;;;;;13.40;4.50;;;23.70;99.90;;;;;;5129541;27;20400;-86
2021/12/24 10:42:15;;;;;;;12.55;4.75;;;23.80;99.90;;;;;;5128933;27;20807;-84
2021/12/24 10:44:45;;;;;;;13.13;4.30;;;23.80;99.90;;;;;;5128132;27;20872;-85
2021/12/24 10:47:16;;;;;;;13.38;4.82;;;23.80;99.90;;;;;;5128411;27;20413;-83
2021/12/24 10:50:07;;;;;;;16.52;4.85;;;23.80;99.90;;;;;;5128510;27;20773;-86
2021/12/24 10:55:12;;;;;;;15.80;4.63;;;23.80;99.90;;;;;;5128435;27;20369;-85
2021/12/24 10:57:43;;;;;;;12.80;4.50;;;23.70;99.90;;;;;;5128286;27;20405;-87
2021/12/24 11:00:48;;;;;;;13.95;4.57;;;23.70;99.90;;;;;;5127663;27;20927;-86
2021/12/24 11:03:22;;;;;;;14.43;4.45;;;23.70;99.90;;;;;;5128238;27;20364;-86
2021/12/24 11:06:13;;;;;;;15.20;4.68;;;23.60;99.90;;;;;;5127662;27;20391;-87
2021/12/24 11:08:40;;;;;;;14.27;4.70;;;23.60;99.90;;;;;;5127911;27;20377;-87
2021/12/24 11:11:11;;;;;;;15.50;4.95;;;23.60;99.90;;;;;;5127829;27;20377;-85
2021/12/24 11:13:41;;;;;;;12.88;4.80;;;23.60;99.90;;;;;;5127915;27;20538;-86
2021/12/24 11:16:17;;;;;;;16.98;4.97;;;23.60;99.90;;;;;;5123795;27;20846;-87
2021/12/24 11:18:53;;;;;;;13.38;4.75;;;23.70;99.90;;;;;;5127834;27;20393;-87
2021/12/24 11:21:26;;;;;;;16.40;4.68;;;23.70;99.90;;;;;;5127576;27;20919;-86
2021/12/24 11:23:54;;;;;;;13.77;4.75;;;23.70;99.90;;;;;;5128256;27;20379;-87
2021/12/24 11:26:25;;;;;;;13.77;4.72;;;23.70;99.90;;;;;;5127660;27;20381;-87
2021/12/24 11:28:52;;;;;;;15.83;5.13;;;23.70;99.90;;;;;;5127932;27;20427;-84
2021/12/24 11:31:23;;;;;;;16.23;4.85;;;23.70;99.90;;;;;;5127577;27;20372;-86
2021/12/24 11:33:52;;;;;;;14.65;4.85;;;23.60;99.90;;;;;;5109381;27;20381;-87
2021/12/24 11:36:23;;;;;;;15.98;5.15;;;23.70;99.90;;;;;;5127470;27;20383;-87
2021/12/24 11:38:53;;;;;;;12.70;4.55;;;23.70;99.90;;;;;;5127756;27;20910;-87
2021/12/24 11:41:25;;;;;;;17.38;5.10;;;23.70;99.90;;;;;;5128785;27;20395;-87
2021/12/24 11:43:55;;;;;;;14.32;5.00;;;23.70;99.90;;;;;;5127734;27;20468;-85
2021/12/24 11:46:24;;;;;;;14.27;5.00;;;23.70;99.90;;;;;;5126802;27;20372;-83
2021/12/24 11:48:53;;;;;;;16.65;5.30;;;23.60;99.90;;;;;;5127935;27;20381;-87
2021/12/24 11:51:26;;;;;;;13.88;5.47;;;23.50;99.90;;;;;;5127529;27;20392;-84
2021/12/24 11:53:58;;;;;;;13.55;5.13;;;23.50;99.90;;;;;;5128153;27;20425;-87
2021/12/24 11:56:25;;;;;;;15.70;5.00;;;23.40;99.90;;;;;;5127327;27;20384;-87
2021/12/24 11:58:55;;;;;;;15.63;5.50;;;23.30;99.90;;;;;;5126911;27;20453;-83
2021/12/24 12:01:27;;;;;;;15.57;5.55;;;23.30;99.90;;;;;;5127055;28;20384;-87
2021/12/24 12:03:58;;;;;;;17.33;5.30;;;23.20;99.90;;;;;;5128027;28;20424;-84
2021/12/24 12:06:25;;;;;;;16.50;5.53;;;23.20;99.90;;;;;;5127969;28;20808;-85
2021/12/24 12:08:57;;;;;;;15.70;5.60;;;23.20;99.90;;;;;;5127720;28;20781;-87
2021/12/24 12:11:29;;;;;;;16.88;5.85;;;23.20;99.90;;;;;;5127616;28;20472;-86
2021/12/24 12:13:59;;;;;;;17.15;5.60;;;23.20;99.90;;;;;;5127679;27;20376;-88
2021/12/24 12:16:29;;;;;;;20.73;5.78;;;23.20;99.90;;;;;;5127816;27;20392;-86
2021/12/24 12:19:24;;;;;;;17.08;5.40;;;23.10;99.90;;;;;;5128127;27;20881;-86
2021/12/24 12:22:30;;;;;;;15.98;5.55;;;23.00;99.90;;;;;;5122525;28;20377;-87
2021/12/24 12:25:08;;;;;;;17.75;5.80;;;23.00;99.90;;;;;;5127697;28;20748;-84
2021/12/24 12:27:38;;;;;;;17.23;5.77;;;22.90;99.90;;;;;;5127588;27;20391;-86
2021/12/24 12:30:39;;;;;;;14.68;5.82;;;22.90;99.90;;;;;;5131607;27;20394;-86
2021/12/24 12:33:16;;;;;;;16.42;5.80;;;22.90;99.90;;;;;;5127155;27;20883;-84
2021/12/24 12:35:43;;;;;;;17.55;5.90;;;22.90;99.90;;;;;;5131455;27;20389;-85
2021/12/24 12:38:40;;;;;;;14.95;6.07;;;23.00;99.90;;;;;;5132134;27;20443;-86
2021/12/24 12:41:38;;;;;;;18.58;5.88;;;22.90;99.90;;;;;;5131601;27;20871;-87
2021/12/24 12:44:09;;;;;;;18.23;5.95;;;22.90;99.90;;;;;;5130093;27;20380;-86
2021/12/24 12:46:40;;;;;;;21.73;6.40;;;22.80;99.90;;;;;;5131201;27;20379;-86
2021/12/24 12:49:16;;;;;;;15.93;5.90;;;22.70;99.90;;;;;;5130666;27;21177;-86
2021/12/24 12:51:50;;;;;;;17.92;6.05;;;22.60;99.90;;;;;;5130988;27;20467;-86
2021/12/24 12:54:43;;;;;;;16.42;5.68;;;22.60;99.90;;;;;;5131923;27;20721;-83
2021/12/24 12:57:30;;;;;;;18.70;6.18;;;22.60;99.90;;;;;;5131636;27;20403;-87
2021/12/24 13:00:19;;;;;;;19.75;6.20;;;22.60;99.90;;;;;;5131714;27;20752;-88
2021/12/24 13:05:52;;;;;;;18.40;6.07;;;22.70;99.90;;;;;;5130450;27;20837;-88
2021/12/24 13:08:22;;;;;;;18.45;6.10;;;22.70;99.90;;;;;;5130744;27;20509;-88
2021/12/24 13:10:55;;;;;;;17.27;5.63;;;22.60;99.90;;;;;;5130988;27;20950;-88
2021/12/24 13:13:22;;;;;;;15.50;5.80;;;22.60;99.90;;;;;;5130806;27;20384;-88
2021/12/24 13:15:50;;;;;;;16.90;6.15;;;22.60;99.90;;;;;;5130365;27;20399;-89
2021/12/24 13:18:30;;;;;;;16.35;5.88;;;22.60;99.90;;;;;;5130622;27;20908;-88
2021/12/24 13:23:36;;;;;;;16.93;5.70;;;22.60;99.90;;;;;;5130611;27;21227;-88
2021/12/24 13:26:18;;;;;;;15.98;5.78;;;22.60;99.90;;;;;;5129890;27;20452;-87
2021/12/24 13:29:06;;;;;;;16.48;5.40;;;22.70;99.90;;;;;;5130475;27;20402;-87
2021/12/24 13:31:33;;;;;;;18.93;5.97;;;22.70;99.90;;;;;;5126627;27;20784;-84
2021/12/24 13:34:00;;;;;;;15.85;5.82;;;22.70;99.90;;;;;;5130315;27;20482;-87
2021/12/24 13:36:29;;;;;;;17.53;5.73;;;22.70;99.90;;;;;;5129871;27;20472;-87
2021/12/24 13:39:16;;;;;;;18.58;5.55;;;22.70;99.90;;;;;;5130034;27;20392;-86
2021/12/24 13:41:45;;;;;;;16.25;5.60;;;22.60;99.90;;;;;;5128932;27;20479;-87
2021/12/24 13:44:25;;;;;;;15.57;5.32;;;22.60;99.90;;;;;;5108855;28;20402;-83
2021/12/24 13:47:06;;;;;;;17.58;5.30;;;22.60;99.90;;;;;;5129526;27;20785;-87
2021/12/24 13:55:21;;;;;;;17.15;5.80;;;22.40;99.90;;;;;;5129715;27;20433;-87
2021/12/24 13:57:57;;;;;;;19.52;6.05;;;22.30;99.90;;;;;;5129496;27;20489;-87
2021/12/24 14:00:25;;;;;;;16.38;5.95;;;22.20;99.90;;;;;;5129239;27;20416;-87
2021/12/24 14:02:54;;;;;;;21.27;6.35;;;22.10;99.90;;;;;;5129574;27;20381;-84
2021/12/24 14:05:23;;;;;;;18.17;6.38;;;22.10;99.90;;;;;;5128895;27;20389;-85
2021/12/24 14:08:13;;;;;;;17.70;5.80;;;22.10;99.90;;;;;;5129624;27;20877;-86
2021/12/24 14:10:41;;;;;;;18.73;6.20;;;22.00;99.90;;;;;;5128496;27;20749;-85
2021/12/24 14:13:17;;;;;;;20.92;6.07;;;21.90;99.90;;;;;;5129492;27;20814;-86
2021/12/24 14:16:00;;;;;;;18.10;6.00;;;21.90;99.90;;;;;;5129181;27;20383;-86
2021/12/24 14:18:55;;;;;;;16.83;5.93;;;21.80;99.90;;;;;;5129250;27;20872;-84
2021/12/24 14:24:13;;;;;;;17.73;5.85;;;21.70;99.90;;;;;;5129582;27;20361;-85
2021/12/24 14:27:01;;;;;;;17.40;5.93;;;21.70;99.90;;;;;;5128513;27;20474;-86
2021/12/24 14:29:55;;;;;;;18.38;6.15;;;21.60;99.90;;;;;;5129100;27;20373;-85
2021/12/24 14:32:40;;;;;;;17.53;6.20;;;21.60;99.90;;;;;;5128883;27;20744;-85
2021/12/24 14:35:22;;;;;;;21.27;6.40;;;21.50;99.90;;;;;;5117065;27;21178;-86
2021/12/24 14:38:01;;;;;;;16.13;5.88;;;21.50;99.90;;;;;;5128698;27;20401;-85
2021/12/24 14:40:32;;;;;;;20.88;6.22;;;21.50;99.90;;;;;;5127443;27;20472;-86
2021/12/24 14:43:00;;;;;;;17.63;5.68;;;21.50;99.90;;;;;;5128577;27;20389;-86
2021/12/24 14:45:35;;;;;;;17.00;6.00;;;21.40;99.90;;;;;;5128408;27;20373;-85
2021/12/24 14:48:07;;;;;;;20.15;5.85;;;21.40;99.90;;;;;;5128219;27;20385;-84
2021/12/24 14:50:46;;;;;;;16.73;6.20;;;21.40;99.90;;;;;;5127554;27;20782;-84
2021/12/24 14:53:15;;;;;;;24.55;6.90;;;21.40;99.90;;;;;;5124824;27;20468;-85
2021/12/24 14:55:43;;;;;;;19.52;6.80;;;21.20;99.90;;;;;;5128462;27;20369;-85
2021/12/24 14:58:11;;;;;;;24.65;7.13;;;21.20;99.90;;;;;;5128202;27;20903;-85
2021/12/24 15:00:57;;;;;;;22.50;6.80;;;21.10;99.90;;;;;;5128381;27;20381;-82